FIN1TC EFHK-ESSA
Flight info
| Callsign | FIN1TC |
|---|---|
| Flight time | 0h 44m |
| Altitude | 28000 |
| Route | ADIVO Y365 POGOK DCT RUNGA N872 XILAN |
| Aircraft | A321/M-SDE3FGHIRWY/LB1 |
Departure
| Time | 2026-04-22 22:21 |
|---|---|
| Airport | Helsinki Vantaa Airport (EFHK) |
Arrival
| Time | 2026-04-22 23:06 |
|---|---|
| Airport | Stockholm-Arlanda Airport (ESSA) |
| Time | Latitude | Longitude | Altitude | Speed | Heading |
|---|---|---|---|---|---|
| 2026-04-22 21:58 | 60.31791 | 24.97081 | 162 ft | 0 kts | 242° |
| 2026-04-22 22:00 | 60.31791 | 24.97082 | 162 ft | 0 kts | 242° |
| 2026-04-22 22:12 | 60.31791 | 24.97083 | 161 ft | 1 kts | 242° |
| 2026-04-22 22:12 | 60.31802 | 24.97127 | 161 ft | 4 kts | 246° |
| 2026-04-22 22:13 | 60.31813 | 24.97173 | 161 ft | 4 kts | 248° |
| 2026-04-22 22:13 | 60.31813 | 24.97202 | 161 ft | 4 kts | 326° |
| 2026-04-22 22:13 | 60.31795 | 24.97223 | 161 ft | 4 kts | 333° |
| 2026-04-22 22:13 | 60.31772 | 24.97249 | 161 ft | 3 kts | 332° |
| 2026-04-22 22:14 | 60.31770 | 24.97251 | 161 ft | 3 kts | 332° |
| 2026-04-22 22:15 | 60.31771 | 24.97250 | 161 ft | 1 kts | 332° |
| 2026-04-22 22:15 | 60.31796 | 24.97224 | 161 ft | 8 kts | 332° |
| 2026-04-22 22:16 | 60.31852 | 24.97168 | 161 ft | 9 kts | 334° |
| 2026-04-22 22:16 | 60.31913 | 24.97147 | 161 ft | 9 kts | 25° |
| 2026-04-22 22:16 | 60.31907 | 24.97251 | 161 ft | 10 kts | 134° |
| 2026-04-22 22:16 | 60.31847 | 24.97324 | 161 ft | 11 kts | 152° |
| 2026-04-22 22:17 | 60.31776 | 24.97398 | 161 ft | 12 kts | 153° |
| 2026-04-22 22:17 | 60.31697 | 24.97477 | 161 ft | 13 kts | 154° |
| 2026-04-22 22:17 | 60.31610 | 24.97567 | 161 ft | 15 kts | 152° |
| 2026-04-22 22:17 | 60.31517 | 24.97664 | 161 ft | 16 kts | 153° |
| 2026-04-22 22:18 | 60.31417 | 24.97766 | 161 ft | 17 kts | 153° |
| 2026-04-22 22:18 | 60.31311 | 24.97872 | 161 ft | 17 kts | 154° |
| 2026-04-22 22:18 | 60.31201 | 24.97985 | 161 ft | 18 kts | 148° |
| 2026-04-22 22:18 | 60.31089 | 24.98109 | 161 ft | 19 kts | 155° |
| 2026-04-22 22:19 | 60.30984 | 24.98225 | 161 ft | 14 kts | 127° |
| 2026-04-22 22:19 | 60.31001 | 24.98420 | 157 ft | 17 kts | 62° |
| 2026-04-22 22:19 | 60.31069 | 24.98459 | 156 ft | 7 kts | 335° |
| 2026-04-22 22:19 | 60.31081 | 24.98447 | 156 ft | 0 kts | 333° |
| 2026-04-22 22:20 | 60.31128 | 24.98399 | 157 ft | 32 kts | 333° |
| 2026-04-22 22:21 | 60.31540 | 24.97979 | 153 ft | 99 kts | 333° |
| 2026-04-22 22:21 | 60.32326 | 24.97183 | 175 ft | 149 kts | 333° |
| 2026-04-22 22:21 | 60.33211 | 24.96307 | 943 ft | 134 kts | 336° |
| 2026-04-22 22:21 | 60.34000 | 24.95198 | 1479 ft | 147 kts | 324° |
| 2026-04-22 22:22 | 60.34704 | 24.93461 | 1756 ft | 172 kts | 307° |
| 2026-04-22 22:22 | 60.35171 | 24.91093 | 2133 ft | 193 kts | 290° |
| 2026-04-22 22:22 | 60.35286 | 24.88211 | 2410 ft | 225 kts | 265° |
| 2026-04-22 22:22 | 60.34667 | 24.85080 | 2746 ft | 256 kts | 244° |
| 2026-04-22 22:23 | 60.33757 | 24.81833 | 3196 ft | 272 kts | 245° |
| 2026-04-22 22:23 | 60.32850 | 24.78437 | 3968 ft | 276 kts | 246° |
| 2026-04-22 22:23 | 60.31956 | 24.74994 | 4764 ft | 278 kts | 246° |
| 2026-04-22 22:23 | 60.31064 | 24.71512 | 5560 ft | 281 kts | 247° |
| 2026-04-22 22:24 | 60.30212 | 24.67925 | 5980 ft | 284 kts | 256° |
| 2026-04-22 22:24 | 60.29781 | 24.64106 | 6777 ft | 276 kts | 271° |
| 2026-04-22 22:24 | 60.29739 | 24.60265 | 7541 ft | 274 kts | 277° |
| 2026-04-22 22:24 | 60.29750 | 24.56410 | 8293 ft | 277 kts | 277° |
| 2026-04-22 22:25 | 60.29760 | 24.52502 | 9045 ft | 279 kts | 278° |
| 2026-04-22 22:25 | 60.29770 | 24.48566 | 9763 ft | 283 kts | 278° |
| 2026-04-22 22:25 | 60.29782 | 24.44534 | 10137 ft | 299 kts | 278° |
| 2026-04-22 22:25 | 60.29801 | 24.40191 | 10407 ft | 316 kts | 277° |
| 2026-04-22 22:26 | 60.29810 | 24.35760 | 10937 ft | 322 kts | 277° |
| 2026-04-22 22:26 | 60.29808 | 24.31152 | 11576 ft | 327 kts | 277° |
| 2026-04-22 22:26 | 60.29802 | 24.26545 | 12211 ft | 330 kts | 277° |
| 2026-04-22 22:26 | 60.29795 | 24.21962 | 12840 ft | 333 kts | 277° |
| 2026-04-22 22:27 | 60.29787 | 24.17260 | 13463 ft | 337 kts | 278° |
| 2026-04-22 22:27 | 60.29778 | 24.12508 | 14047 ft | 340 kts | 278° |
| 2026-04-22 22:27 | 60.29770 | 24.07651 | 14614 ft | 343 kts | 278° |
| 2026-04-22 22:27 | 60.29762 | 24.02884 | 15160 ft | 347 kts | 278° |
| 2026-04-22 22:28 | 60.29685 | 23.97985 | 15710 ft | 355 kts | 271° |
| 2026-04-22 22:28 | 60.29215 | 23.93028 | 16268 ft | 363 kts | 265° |
| 2026-04-22 22:28 | 60.28672 | 23.88029 | 16824 ft | 366 kts | 265° |
| 2026-04-22 22:28 | 60.28127 | 23.82996 | 17375 ft | 369 kts | 266° |
| 2026-04-22 22:29 | 60.27577 | 23.77914 | 17923 ft | 373 kts | 265° |
| 2026-04-22 22:29 | 60.27019 | 23.72789 | 18421 ft | 376 kts | 265° |
| 2026-04-22 22:29 | 60.26454 | 23.67622 | 18895 ft | 379 kts | 265° |
| 2026-04-22 22:29 | 60.25881 | 23.62436 | 19381 ft | 381 kts | 265° |
| 2026-04-22 22:30 | 60.25301 | 23.57200 | 19872 ft | 384 kts | 265° |
| 2026-04-22 22:30 | 60.24717 | 23.51944 | 20357 ft | 386 kts | 265° |
| 2026-04-22 22:30 | 60.24128 | 23.46648 | 20852 ft | 389 kts | 264° |
| 2026-04-22 22:30 | 60.23535 | 23.41327 | 21348 ft | 391 kts | 264° |
| 2026-04-22 22:31 | 60.22936 | 23.35961 | 21832 ft | 394 kts | 264° |
| 2026-04-22 22:31 | 60.22331 | 23.30580 | 22315 ft | 396 kts | 264° |
| 2026-04-22 22:31 | 60.21716 | 23.25153 | 22793 ft | 399 kts | 263° |
| 2026-04-22 22:31 | 60.21094 | 23.19690 | 23284 ft | 402 kts | 263° |
| 2026-04-22 22:32 | 60.20467 | 23.14220 | 23719 ft | 404 kts | 263° |
| 2026-04-22 22:32 | 60.19831 | 23.08680 | 24120 ft | 406 kts | 263° |
| 2026-04-22 22:32 | 60.19195 | 23.03131 | 24518 ft | 408 kts | 263° |
| 2026-04-22 22:32 | 60.18553 | 22.97561 | 24915 ft | 410 kts | 263° |
| 2026-04-22 22:33 | 60.17905 | 22.91958 | 25297 ft | 412 kts | 262° |
| 2026-04-22 22:33 | 60.17252 | 22.86338 | 25663 ft | 415 kts | 262° |
| 2026-04-22 22:33 | 60.16592 | 22.80688 | 26029 ft | 417 kts | 262° |
| 2026-04-22 22:33 | 60.15926 | 22.75009 | 26399 ft | 419 kts | 262° |
| 2026-04-22 22:34 | 60.15254 | 22.69311 | 26766 ft | 421 kts | 262° |
| 2026-04-22 22:34 | 60.14573 | 22.63576 | 27120 ft | 423 kts | 262° |
| 2026-04-22 22:34 | 60.13888 | 22.57822 | 27465 ft | 425 kts | 261° |
| 2026-04-22 22:34 | 60.13207 | 22.52117 | 27805 ft | 427 kts | 261° |
| 2026-04-22 22:35 | 60.12511 | 22.46309 | 27946 ft | 425 kts | 261° |
| 2026-04-22 22:35 | 60.11814 | 22.40583 | 27971 ft | 409 kts | 261° |
| 2026-04-22 22:35 | 60.11144 | 22.35126 | 27967 ft | 398 kts | 261° |
| 2026-04-22 22:35 | 60.10497 | 22.29830 | 27975 ft | 395 kts | 261° |
| 2026-04-22 22:36 | 60.09844 | 22.24423 | 27979 ft | 394 kts | 261° |
| 2026-04-22 22:36 | 60.09202 | 22.19089 | 27975 ft | 394 kts | 261° |
| 2026-04-22 22:36 | 60.08562 | 22.13828 | 27982 ft | 394 kts | 261° |
| 2026-04-22 22:36 | 60.07910 | 22.08510 | 27981 ft | 393 kts | 261° |
| 2026-04-22 22:37 | 60.07253 | 22.03182 | 27980 ft | 393 kts | 261° |
| 2026-04-22 22:37 | 60.06597 | 21.97868 | 27986 ft | 393 kts | 261° |
| 2026-04-22 22:37 | 60.05937 | 21.92555 | 27986 ft | 393 kts | 261° |
| 2026-04-22 22:37 | 60.05275 | 21.87242 | 27984 ft | 393 kts | 261° |
| 2026-04-22 22:38 | 60.04611 | 21.81929 | 27989 ft | 394 kts | 261° |
| 2026-04-22 22:38 | 60.03939 | 21.76566 | 27994 ft | 403 kts | 261° |
| 2026-04-22 22:38 | 60.03249 | 21.71058 | 27998 ft | 414 kts | 260° |
| 2026-04-22 22:38 | 60.02535 | 21.65390 | 27999 ft | 425 kts | 260° |
| 2026-04-22 22:39 | 60.01800 | 21.59583 | 27999 ft | 436 kts | 260° |
| 2026-04-22 22:39 | 60.01041 | 21.53644 | 27998 ft | 446 kts | 260° |
| 2026-04-22 22:39 | 60.00260 | 21.47576 | 28006 ft | 456 kts | 259° |
| 2026-04-22 22:40 | 59.98633 | 21.35075 | 28009 ft | 474 kts | 259° |
| 2026-04-22 22:40 | 59.96862 | 21.22194 | 28009 ft | 486 kts | 258° |
| 2026-04-22 22:41 | 59.95016 | 21.09201 | 28008 ft | 487 kts | 258° |
| 2026-04-22 22:41 | 59.93167 | 20.96198 | 28021 ft | 487 kts | 258° |
| 2026-04-22 22:41 | 59.92251 | 20.89776 | 28014 ft | 474 kts | 258° |
| 2026-04-22 22:42 | 59.91363 | 20.83581 | 28022 ft | 456 kts | 258° |
| 2026-04-22 22:42 | 59.90507 | 20.77617 | 28019 ft | 439 kts | 258° |
| 2026-04-22 22:42 | 59.89683 | 20.71886 | 28021 ft | 422 kts | 259° |
| 2026-04-22 22:42 | 59.88886 | 20.66335 | 27628 ft | 417 kts | 259° |
| 2026-04-22 22:43 | 59.88090 | 20.60765 | 27070 ft | 416 kts | 259° |
| 2026-04-22 22:43 | 59.87300 | 20.55278 | 26677 ft | 411 kts | 258° |
| 2026-04-22 22:43 | 59.86513 | 20.49837 | 26254 ft | 407 kts | 258° |
| 2026-04-22 22:43 | 59.85729 | 20.44441 | 25814 ft | 404 kts | 258° |
| 2026-04-22 22:44 | 59.84945 | 20.39085 | 25403 ft | 402 kts | 258° |
| 2026-04-22 22:44 | 59.84164 | 20.33781 | 24978 ft | 400 kts | 258° |
| 2026-04-22 22:44 | 59.83382 | 20.28486 | 24548 ft | 398 kts | 258° |
| 2026-04-22 22:44 | 59.82603 | 20.23211 | 24111 ft | 397 kts | 258° |
| 2026-04-22 22:45 | 59.81828 | 20.17963 | 23672 ft | 396 kts | 258° |
| 2026-04-22 22:45 | 59.81052 | 20.12718 | 23181 ft | 395 kts | 258° |
| 2026-04-22 22:45 | 59.80275 | 20.07499 | 22768 ft | 391 kts | 257° |
| 2026-04-22 22:45 | 59.79504 | 20.02346 | 22265 ft | 389 kts | 257° |
| 2026-04-22 22:46 | 59.78732 | 19.97222 | 21818 ft | 386 kts | 257° |
| 2026-04-22 22:46 | 59.77965 | 19.92138 | 21384 ft | 383 kts | 258° |
| 2026-04-22 22:46 | 59.77203 | 19.87092 | 20940 ft | 381 kts | 257° |
| 2026-04-22 22:46 | 59.76450 | 19.82144 | 20497 ft | 378 kts | 257° |
| 2026-04-22 22:47 | 59.75692 | 19.77164 | 20058 ft | 375 kts | 258° |
| 2026-04-22 22:47 | 59.74931 | 19.72165 | 19622 ft | 372 kts | 258° |
| 2026-04-22 22:47 | 59.74221 | 19.67322 | 19197 ft | 369 kts | 259° |
| 2026-04-22 22:47 | 59.73534 | 19.62369 | 18760 ft | 366 kts | 259° |
| 2026-04-22 22:48 | 59.72888 | 19.57570 | 18337 ft | 364 kts | 260° |
| 2026-04-22 22:48 | 59.72233 | 19.52675 | 17874 ft | 361 kts | 260° |
| 2026-04-22 22:48 | 59.71594 | 19.47956 | 17454 ft | 357 kts | 259° |
| 2026-04-22 22:48 | 59.70944 | 19.43228 | 17047 ft | 354 kts | 259° |
| 2026-04-22 22:49 | 59.70296 | 19.38562 | 16623 ft | 350 kts | 259° |
| 2026-04-22 22:49 | 59.69649 | 19.33940 | 16214 ft | 347 kts | 259° |
| 2026-04-22 22:49 | 59.69003 | 19.29361 | 15807 ft | 344 kts | 259° |
| 2026-04-22 22:49 | 59.68361 | 19.24816 | 15405 ft | 341 kts | 259° |
| 2026-04-22 22:50 | 59.67724 | 19.20319 | 15003 ft | 338 kts | 259° |
| 2026-04-22 22:50 | 59.67090 | 19.15849 | 14608 ft | 336 kts | 259° |
| 2026-04-22 22:50 | 59.66462 | 19.11413 | 14217 ft | 334 kts | 259° |
| 2026-04-22 22:50 | 59.65838 | 19.07001 | 13820 ft | 332 kts | 259° |
| 2026-04-22 22:51 | 59.65208 | 19.02629 | 13407 ft | 329 kts | 259° |
| 2026-04-22 22:51 | 59.64570 | 18.98304 | 13017 ft | 326 kts | 258° |
| 2026-04-22 22:51 | 59.63929 | 18.94033 | 12631 ft | 323 kts | 258° |
| 2026-04-22 22:51 | 59.63287 | 18.89791 | 12255 ft | 320 kts | 258° |
| 2026-04-22 22:52 | 59.62650 | 18.85590 | 11866 ft | 318 kts | 258° |
| 2026-04-22 22:52 | 59.62018 | 18.81421 | 11495 ft | 316 kts | 258° |
| 2026-04-22 22:52 | 59.61393 | 18.77287 | 11127 ft | 313 kts | 258° |
| 2026-04-22 22:52 | 59.60779 | 18.73228 | 10970 ft | 304 kts | 258° |
| 2026-04-22 22:53 | 59.60179 | 18.69256 | 10636 ft | 301 kts | 259° |
| 2026-04-22 22:53 | 59.59584 | 18.65307 | 10280 ft | 300 kts | 258° |
| 2026-04-22 22:53 | 59.58991 | 18.61377 | 9927 ft | 298 kts | 258° |
| 2026-04-22 22:53 | 59.58600 | 18.58804 | 9557 ft | 293 kts | 258° |
| 2026-04-22 22:54 | 59.58144 | 18.55832 | 9170 ft | 285 kts | 258° |
| 2026-04-22 22:54 | 59.57580 | 18.52197 | 8820 ft | 269 kts | 258° |
| 2026-04-22 22:54 | 59.57046 | 18.48735 | 8511 ft | 262 kts | 258° |
| 2026-04-22 22:54 | 59.56514 | 18.45302 | 8195 ft | 261 kts | 257° |
| 2026-04-22 22:55 | 59.55942 | 18.41905 | 7880 ft | 261 kts | 256° |
| 2026-04-22 22:55 | 59.55349 | 18.38530 | 7561 ft | 260 kts | 255° |
| 2026-04-22 22:55 | 59.54158 | 18.31842 | 6947 ft | 258 kts | 255° |
| 2026-04-22 22:56 | 59.53564 | 18.28520 | 6633 ft | 257 kts | 254° |
| 2026-04-22 22:56 | 59.52972 | 18.25200 | 6314 ft | 256 kts | 254° |
| 2026-04-22 22:56 | 59.52388 | 18.21894 | 5984 ft | 255 kts | 254° |
| 2026-04-22 22:56 | 59.51806 | 18.18604 | 5677 ft | 253 kts | 254° |
| 2026-04-22 22:57 | 59.51228 | 18.15341 | 5373 ft | 252 kts | 253° |
| 2026-04-22 22:57 | 59.50472 | 18.12249 | 5172 ft | 247 kts | 239° |
| 2026-04-22 22:57 | 59.49544 | 18.09512 | 5091 ft | 235 kts | 239° |
| 2026-04-22 22:57 | 59.48658 | 18.06877 | 4964 ft | 224 kts | 239° |
| 2026-04-22 22:58 | 59.47834 | 18.04412 | 4862 ft | 207 kts | 240° |
| 2026-04-22 22:58 | 59.47074 | 18.02136 | 4735 ft | 192 kts | 240° |
| 2026-04-22 22:58 | 59.46390 | 18.00013 | 4635 ft | 175 kts | 248° |
| 2026-04-22 22:58 | 59.46007 | 17.97869 | 4565 ft | 158 kts | 264° |
| 2026-04-22 22:59 | 59.45923 | 17.95791 | 4315 ft | 153 kts | 278° |
| 2026-04-22 22:59 | 59.46092 | 17.93696 | 3940 ft | 158 kts | 285° |
| 2026-04-22 22:59 | 59.46299 | 17.91552 | 3567 ft | 164 kts | 285° |
| 2026-04-22 22:59 | 59.46505 | 17.89350 | 3364 ft | 159 kts | 285° |
| 2026-04-22 23:00 | 59.46818 | 17.87423 | 3280 ft | 139 kts | 310° |
| 2026-04-22 23:00 | 59.47507 | 17.86198 | 3200 ft | 132 kts | 338° |
| 2026-04-22 23:00 | 59.48378 | 17.85824 | 2940 ft | 129 kts | 5° |
| 2026-04-22 23:00 | 59.49225 | 17.86365 | 2691 ft | 129 kts | 32° |
| 2026-04-22 23:01 | 59.49827 | 17.87688 | 2488 ft | 133 kts | 53° |
| 2026-04-22 23:01 | 59.50506 | 17.88694 | 2438 ft | 120 kts | 5° |
| 2026-04-22 23:01 | 59.51298 | 17.88247 | 2583 ft | 122 kts | 337° |
| 2026-04-22 23:01 | 59.52054 | 17.87532 | 2525 ft | 119 kts | 342° |
| 2026-04-22 23:02 | 59.52863 | 17.87493 | 2425 ft | 120 kts | 16° |
| 2026-04-22 23:02 | 59.53669 | 17.87844 | 2125 ft | 118 kts | 6° |
| 2026-04-22 23:02 | 59.54483 | 17.88002 | 1845 ft | 117 kts | 7° |
| 2026-04-22 23:02 | 59.55285 | 17.88238 | 1583 ft | 117 kts | 11° |
| 2026-04-22 23:03 | 59.56076 | 17.88565 | 1370 ft | 116 kts | 12° |
| 2026-04-22 23:03 | 59.56866 | 17.88851 | 1263 ft | 116 kts | 9° |
| 2026-04-22 23:03 | 59.57659 | 17.89152 | 1144 ft | 115 kts | 9° |
| 2026-04-22 23:03 | 59.58450 | 17.89419 | 1021 ft | 116 kts | 8° |
| 2026-04-22 23:04 | 59.59240 | 17.89703 | 884 ft | 116 kts | 9° |
| 2026-04-22 23:04 | 59.60033 | 17.90016 | 744 ft | 116 kts | 8° |
| 2026-04-22 23:04 | 59.60833 | 17.90279 | 615 ft | 116 kts | 7° |
| 2026-04-22 23:04 | 59.61642 | 17.90551 | 507 ft | 119 kts | 9° |
| 2026-04-22 23:05 | 59.62462 | 17.90874 | 387 ft | 121 kts | 8° |
| 2026-04-22 23:05 | 59.63289 | 17.91163 | 227 ft | 120 kts | 9° |
| 2026-04-22 23:05 | 59.64099 | 17.91465 | 110 ft | 110 kts | 8° |
| 2026-04-22 23:05 | 59.64767 | 17.91696 | 108 ft | 74 kts | 10° |
| 2026-04-22 23:06 | 59.65112 | 17.91842 | 104 ft | 30 kts | 23° |
| 2026-04-22 23:06 | 59.65273 | 17.92067 | 103 ft | 23 kts | 41° |
| 2026-04-22 23:06 | 59.65285 | 17.92088 | 103 ft | 0 kts | 43° |
| 2026-04-22 23:06 | 59.65291 | 17.92099 | 103 ft | 6 kts | 43° |
| 2026-04-22 23:07 | 59.65323 | 17.92205 | 103 ft | 3 kts | 92° |
| 2026-04-22 23:07 | 59.65304 | 17.92326 | 108 ft | 15 kts | 107° |
| 2026-04-22 23:07 | 59.65273 | 17.92512 | 112 ft | 13 kts | 110° |
| 2026-04-22 23:07 | 59.65266 | 17.92575 | 112 ft | 0 kts | 88° |
| 2026-04-22 23:08 | 59.65265 | 17.92577 | 112 ft | 1 kts | 94° |
| 2026-04-22 23:08 | 59.65247 | 17.92658 | 112 ft | 11 kts | 114° |
| 2026-04-22 23:08 | 59.65254 | 17.92761 | 111 ft | 8 kts | 57° |
| 2026-04-22 23:08 | 59.65273 | 17.92874 | 110 ft | 9 kts | 71° |
| 2026-04-22 23:09 | 59.65287 | 17.92946 | 112 ft | 1 kts | 69° |
| 2026-04-22 23:09 | 59.65288 | 17.92950 | 112 ft | 0 kts | 69° |
| 2026-04-22 23:14 | 59.65288 | 17.92949 | 112 ft | 0 kts | 69° |
| 2026-04-22 23:14 | 59.65287 | 17.92949 | 112 ft | 0 kts | 69° |